Terminal Aerodrome Forecast
Issued by NWS

Home | Current Version | Previous Version | Text Only | Print | Product List | Glossary On
Versions: 1 2 3 4 5 6 7 8 9 10 11 12 13 14
000
FTUS44 KLZK 231400 AAA
TAFHRO
TAF AMD
KHRO 231422Z 2314/2412 13008KT P6SM VCSH SCT025 OVC050
      TEMPO 2314/2317 3SM -SHRA BR BKN030
     FM231700 14010KT P6SM VCTS BKN050CB OVC100
     FM240000 13010KT P6SM VCTS SCT025 BKN050CB OVC100 PROB30
      2406/2412 5SM -TSRA BR BKN035CB=

USA.gov is the U.S. government's official web portal to all federal, state and local government web resources and services.